sensor_id;sensor_type;location;lat;lon;timestamp;pressure;altitude;pressure_sealevel;temperature;humidity
6851;BME280;3464;42.728;23.296;2022-09-21T00:01:42;95422.61;;;13.18;60.06
6851;BME280;3464;42.728;23.296;2022-09-21T00:04:09;95428.86;;;12.97;60.67
6851;BME280;3464;42.728;23.296;2022-09-21T00:06:36;95430.09;;;12.78;61.80
6851;BME280;3464;42.728;23.296;2022-09-21T00:09:03;95433.91;;;12.83;61.57
6851;BME280;3464;42.728;23.296;2022-09-21T00:11:30;95433.13;;;13.01;60.83
6851;BME280;3464;42.728;23.296;2022-09-21T00:13:58;95426.34;;;12.91;60.98
6851;BME280;3464;42.728;23.296;2022-09-21T00:16:24;95419.61;;;12.90;61.23
6851;BME280;3464;42.728;23.296;2022-09-21T00:18:50;95414.98;;;12.96;61.09
6851;BME280;3464;42.728;23.296;2022-09-21T00:21:17;95421.25;;;12.81;61.59
6851;BME280;3464;42.728;23.296;2022-09-21T00:23:44;95423.34;;;12.71;62.22
6851;BME280;3464;42.728;23.296;2022-09-21T00:26:12;95435.09;;;12.64;62.68
6851;BME280;3464;42.728;23.296;2022-09-21T00:28:38;95422.11;;;12.80;62.41
6851;BME280;3464;42.728;23.296;2022-09-21T00:31:05;95418.27;;;12.59;62.68
6851;BME280;3464;42.728;23.296;2022-09-21T00:33:31;95418.67;;;12.61;63.05
6851;BME280;3464;42.728;23.296;2022-09-21T00:36:02;95422.88;;;12.60;62.95
6851;BME280;3464;42.728;23.296;2022-09-21T00:38:28;95424.55;;;12.52;63.21
6851;BME280;3464;42.728;23.296;2022-09-21T00:40:54;95422.92;;;12.72;62.51
6851;BME280;3464;42.728;23.296;2022-09-21T00:43:21;95423.73;;;12.66;62.96
6851;BME280;3464;42.728;23.296;2022-09-21T00:45:47;95425.39;;;12.53;63.36
6851;BME280;3464;42.728;23.296;2022-09-21T00:48:29;95424.17;;;12.65;63.42
6851;BME280;3464;42.728;23.296;2022-09-21T00:50:57;95416.55;;;12.55;63.45
6851;BME280;3464;42.728;23.296;2022-09-21T00:53:22;95415.73;;;12.63;63.33
6851;BME280;3464;42.728;23.296;2022-09-21T00:55:50;95410.23;;;12.52;63.46
6851;BME280;3464;42.728;23.296;2022-09-21T00:58:16;95417.38;;;12.54;63.77
6851;BME280;3464;42.728;23.296;2022-09-21T01:00:42;95418.29;;;12.71;63.00
6851;BME280;3464;42.728;23.296;2022-09-21T01:03:09;95419.11;;;12.61;63.46
6851;BME280;3464;42.728;23.296;2022-09-21T01:05:35;95419.08;;;12.57;63.30
6851;BME280;3464;42.728;23.296;2022-09-21T01:08:02;95417.77;;;12.37;64.15
6851;BME280;3464;42.728;23.296;2022-09-21T01:10:29;95417.34;;;12.40;64.11
6851;BME280;3464;42.728;23.296;2022-09-21T01:13:04;95415.16;;;12.25;64.53
6851;BME280;3464;42.728;23.296;2022-09-21T01:15:54;95418.94;;;12.21;64.67
6851;BME280;3464;42.728;23.296;2022-09-21T01:18:23;95417.66;;;12.18;64.82
6851;BME280;3464;42.728;23.296;2022-09-21T01:21:01;95412.34;;;12.49;63.74
6851;BME280;3464;42.728;23.296;2022-09-21T01:24:04;95409.33;;;12.32;64.26
6851;BME280;3464;42.728;23.296;2022-09-21T01:26:15;95402.63;;;12.43;63.78
6851;BME280;3464;42.728;23.296;2022-09-21T01:29:01;95401.75;;;12.35;64.16
6851;BME280;3464;42.728;23.296;2022-09-21T01:31:27;95396.62;;;12.14;64.99
6851;BME280;3464;42.728;23.296;2022-09-21T01:33:51;95395.44;;;12.34;64.46
6851;BME280;3464;42.728;23.296;2022-09-21T01:36:18;95390.46;;;12.57;63.52
6851;BME280;3464;42.728;23.296;2022-09-21T01:38:45;95391.30;;;12.52;63.90
6851;BME280;3464;42.728;23.296;2022-09-21T01:41:12;95389.22;;;12.58;63.61
6851;BME280;3464;42.728;23.296;2022-09-21T01:43:41;95391.28;;;12.52;63.68
6851;BME280;3464;42.728;23.296;2022-09-21T01:46:06;95400.19;;;12.67;63.23
6851;BME280;3464;42.728;23.296;2022-09-21T01:48:33;95393.44;;;12.62;63.07
6851;BME280;3464;42.728;23.296;2022-09-21T01:51:00;95391.74;;;12.58;63.28
6851;BME280;3464;42.728;23.296;2022-09-21T01:53:32;95399.73;;;12.57;63.21
6851;BME280;3464;42.728;23.296;2022-09-21T01:56:03;95400.95;;;12.43;63.88
6851;BME280;3464;42.728;23.296;2022-09-21T01:58:33;95400.96;;;12.44;63.86
6851;BME280;3464;42.728;23.296;2022-09-21T02:00:57;95406.45;;;12.53;63.63
6851;BME280;3464;42.728;23.296;2022-09-21T02:03:38;95405.15;;;12.39;63.96
6851;BME280;3464;42.728;23.296;2022-09-21T02:06:05;95403.07;;;12.47;63.83
6851;BME280;3464;42.728;23.296;2022-09-21T02:08:32;95404.27;;;12.36;64.10
6851;BME280;3464;42.728;23.296;2022-09-21T02:10:59;95405.55;;;12.42;64.55
6851;BME280;3464;42.728;23.296;2022-09-21T02:13:25;95408.09;;;12.44;64.50
6851;BME280;3464;42.728;23.296;2022-09-21T02:16:08;95410.58;;;12.36;64.56
6851;BME280;3464;42.728;23.296;2022-09-21T02:21:40;95404.69;;;12.36;64.70
6851;BME280;3464;42.728;23.296;2022-09-21T02:24:21;95406.34;;;12.28;65.16
6851;BME280;3464;42.728;23.296;2022-09-21T02:26:48;95412.68;;;12.30;64.99
6851;BME280;3464;42.728;23.296;2022-09-21T02:29:18;95408.83;;;12.16;65.30
6851;BME280;3464;42.728;23.296;2022-09-21T02:31:48;95403.75;;;12.12;65.49
6851;BME280;3464;42.728;23.296;2022-09-21T02:34:29;95407.55;;;12.10;65.75
6851;BME280;3464;42.728;23.296;2022-09-21T02:36:55;95404.20;;;12.17;65.45
6851;BME280;3464;42.728;23.296;2022-09-21T02:39:23;95411.70;;;12.07;65.70
6851;BME280;3464;42.728;23.296;2022-09-21T02:41:57;95407.12;;;12.09;65.66
6851;BME280;3464;42.728;23.296;2022-09-21T02:44:21;95402.48;;;12.10;65.88
6851;BME280;3464;42.728;23.296;2022-09-21T02:46:50;95404.58;;;12.06;66.02
6851;BME280;3464;42.728;23.296;2022-09-21T02:49:17;95406.26;;;12.05;66.16
6851;BME280;3464;42.728;23.296;2022-09-21T02:51:45;95406.61;;;11.92;66.28
6851;BME280;3464;42.728;23.296;2022-09-21T02:54:11;95407.02;;;11.91;66.35
6851;BME280;3464;42.728;23.296;2022-09-21T02:56:37;95407.47;;;11.96;66.24
6851;BME280;3464;42.728;23.296;2022-09-21T02:59:04;95405.80;;;12.04;65.81
6851;BME280;3464;42.728;23.296;2022-09-21T03:01:30;95407.50;;;12.02;65.63
6851;BME280;3464;42.728;23.296;2022-09-21T03:03:57;95405.80;;;12.04;65.76
6851;BME280;3464;42.728;23.296;2022-09-21T03:06:25;95412.09;;;11.99;65.88
6851;BME280;3464;42.728;23.296;2022-09-21T03:08:51;95401.61;;;12.05;65.49
6851;BME280;3464;42.728;23.296;2022-09-21T03:11:18;95413.31;;;11.89;65.86
6851;BME280;3464;42.728;23.296;2022-09-21T03:13:44;95414.04;;;11.74;66.54
6851;BME280;3464;42.728;23.296;2022-09-21T03:16:11;95417.27;;;11.56;67.54
6851;BME280;3464;42.728;23.296;2022-09-21T03:18:38;95421.38;;;11.44;67.57
6851;BME280;3464;42.728;23.296;2022-09-21T03:21:04;95414.84;;;11.65;67.18
6851;BME280;3464;42.728;23.296;2022-09-21T03:23:32;95412.34;;;11.68;66.93
6851;BME280;3464;42.728;23.296;2022-09-21T03:25:59;95417.91;;;11.88;66.03
6851;BME280;3464;42.728;23.296;2022-09-21T03:28:26;95421.23;;;11.79;65.98
6851;BME280;3464;42.728;23.296;2022-09-21T03:30:52;95422.64;;;11.48;67.19
6851;BME280;3464;42.728;23.296;2022-09-21T03:33:19;95414.34;;;11.60;66.85
6851;BME280;3464;42.728;23.296;2022-09-21T03:35:48;95415.33;;;11.79;66.17
6851;BME280;3464;42.728;23.296;2022-09-21T03:38:14;95422.52;;;11.84;65.61
6851;BME280;3464;42.728;23.296;2022-09-21T03:40:44;95423.36;;;11.84;65.62
6851;BME280;3464;42.728;23.296;2022-09-21T03:43:11;95416.22;;;11.82;65.65
6851;BME280;3464;42.728;23.296;2022-09-21T03:45:37;95424.17;;;11.80;65.80
6851;BME280;3464;42.728;23.296;2022-09-21T03:48:04;95421.23;;;11.81;65.73
6851;BME280;3464;42.728;23.296;2022-09-21T03:50:30;95422.96;;;11.86;65.59
6851;BME280;3464;42.728;23.296;2022-09-21T03:52:57;95425.96;;;11.94;65.37
6851;BME280;3464;42.728;23.296;2022-09-21T03:55:23;95424.98;;;11.73;65.80
6851;BME280;3464;42.728;23.296;2022-09-21T03:57:50;95424.21;;;11.84;65.91
6851;BME280;3464;42.728;23.296;2022-09-21T04:00:16;95431.72;;;11.79;65.92
6851;BME280;3464;42.728;23.296;2022-09-21T04:02:43;95430.47;;;11.80;65.89
6851;BME280;3464;42.728;23.296;2022-09-21T04:05:11;95426.34;;;11.90;65.58
6851;BME280;3464;42.728;23.296;2022-09-21T04:07:37;95424.64;;;11.87;65.45
6851;BME280;3464;42.728;23.296;2022-09-21T04:10:04;95420.91;;;11.97;65.16
6851;BME280;3464;42.728;23.296;2022-09-21T04:12:31;95425.95;;;11.94;65.26
6851;BME280;3464;42.728;23.296;2022-09-21T04:14:57;95420.52;;;12.00;65.11
6851;BME280;3464;42.728;23.296;2022-09-21T04:17:24;95425.48;;;11.86;65.44
6851;BME280;3464;42.728;23.296;2022-09-21T04:19:50;95430.94;;;11.87;65.97
6851;BME280;3464;42.728;23.296;2022-09-21T04:22:17;95425.58;;;12.07;65.61
6851;BME280;3464;42.728;23.296;2022-09-21T04:24:44;95423.20;;;12.36;64.67
6851;BME280;3464;42.728;23.296;2022-09-21T04:27:10;95415.63;;;12.29;64.46
6851;BME280;3464;42.728;23.296;2022-09-21T04:29:37;95421.64;;;12.69;63.76
6851;BME280;3464;42.728;23.296;2022-09-21T04:32:04;95421.70;;;12.88;63.27
6851;BME280;3464;42.728;23.296;2022-09-21T04:34:30;95424.30;;;13.19;62.93
6851;BME280;3464;42.728;23.296;2022-09-21T04:36:57;95416.60;;;14.37;61.34
6851;BME280;3464;42.728;23.296;2022-09-21T04:39:23;95415.73;;;15.76;58.95
6851;BME280;3464;42.728;23.296;2022-09-21T04:41:50;95423.66;;;17.29;54.93
6851;BME280;3464;42.728;23.296;2022-09-21T04:44:17;95421.07;;;18.77;53.28
6851;BME280;3464;42.728;23.296;2022-09-21T04:46:43;95418.69;;;19.48;49.26
6851;BME280;3464;42.728;23.296;2022-09-21T04:49:10;95420.41;;;19.29;49.11
6851;BME280;3464;42.728;23.296;2022-09-21T04:51:36;95428.45;;;17.20;50.72
6851;BME280;3464;42.728;23.296;2022-09-21T04:54:03;95427.56;;;16.60;52.98
6851;BME280;3464;42.728;23.296;2022-09-21T04:56:29;95431.72;;;16.28;52.96
6851;BME280;3464;42.728;23.296;2022-09-21T04:58:56;95431.27;;;16.32;53.21
6851;BME280;3464;42.728;23.296;2022-09-21T05:01:23;95435.87;;;17.06;51.92
6851;BME280;3464;42.728;23.296;2022-09-21T05:03:50;95432.59;;;17.57;52.03
6851;BME280;3464;42.728;23.296;2022-09-21T05:06:17;95425.48;;;19.10;49.31
6851;BME280;3464;42.728;23.296;2022-09-21T05:08:45;95425.09;;;20.17;47.52
6851;BME280;3464;42.728;23.296;2022-09-21T05:11:17;95427.00;;;20.56;45.73
6851;BME280;3464;42.728;23.296;2022-09-21T05:13:44;95424.73;;;20.30;45.77
6851;BME280;3464;42.728;23.296;2022-09-21T05:16:10;95428.92;;;20.63;45.46
6851;BME280;3464;42.728;23.296;2022-09-21T05:18:38;95426.04;;;21.20;44.68
6851;BME280;3464;42.728;23.296;2022-09-21T05:21:04;95420.85;;;22.77;42.61
6851;BME280;3464;42.728;23.296;2022-09-21T05:23:31;95434.95;;;21.49;41.71
6851;BME280;3464;42.728;23.296;2022-09-21T05:25:58;95432.94;;;20.42;43.36
6851;BME280;3464;42.728;23.296;2022-09-21T05:28:25;95433.53;;;20.36;44.15
6851;BME280;3464;42.728;23.296;2022-09-21T05:30:53;95432.56;;;20.85;43.14
6851;BME280;3464;42.728;23.296;2022-09-21T05:33:18;95431.92;;;20.93;42.97
6851;BME280;3464;42.728;23.296;2022-09-21T05:38:28;95428.58;;;19.79;43.74
6851;BME280;3464;42.728;23.296;2022-09-21T05:40:55;95427.20;;;19.48;44.82
6851;BME280;3464;42.728;23.296;2022-09-21T05:43:22;95429.61;;;20.70;42.88
6851;BME280;3464;42.728;23.296;2022-09-21T05:45:50;95423.65;;;19.72;43.34
6851;BME280;3464;42.728;23.296;2022-09-21T05:48:20;95421.88;;;19.57;44.91
6851;BME280;3464;42.728;23.296;2022-09-21T05:51:00;95423.16;;;19.57;44.51
6851;BME280;3464;42.728;23.296;2022-09-21T05:53:49;95425.82;;;20.37;43.90
6851;BME280;3464;42.728;23.296;2022-09-21T05:56:36;95421.98;;;20.83;42.66
6851;BME280;3464;42.728;23.296;2022-09-21T05:59:37;95425.06;;;21.24;42.19
6851;BME280;3464;42.728;23.296;2022-09-21T06:04:24;95433.81;;;20.57;42.94
6851;BME280;3464;42.728;23.296;2022-09-21T06:06:50;95429.58;;;21.30;42.21
6851;BME280;3464;42.728;23.296;2022-09-21T06:09:17;95435.11;;;20.71;42.64
6851;BME280;3464;42.728;23.296;2022-09-21T06:11:44;95434.63;;;21.18;42.39
6851;BME280;3464;42.728;23.296;2022-09-21T06:14:11;95437.98;;;21.48;41.66
6851;BME280;3464;42.728;23.296;2022-09-21T06:16:38;95440.88;;;20.79;43.41
6851;BME280;3464;42.728;23.296;2022-09-21T06:19:04;95433.91;;;21.00;42.43
6851;BME280;3464;42.728;23.296;2022-09-21T06:21:31;95436.25;;;21.21;42.54
6851;BME280;3464;42.728;23.296;2022-09-21T06:23:57;95437.52;;;20.30;43.73
6851;BME280;3464;42.728;23.296;2022-09-21T06:26:25;95440.41;;;20.96;43.18
6851;BME280;3464;42.728;23.296;2022-09-21T06:28:51;95444.03;;;20.72;43.56
6851;BME280;3464;42.728;23.296;2022-09-21T06:31:17;95439.84;;;21.15;43.07
6851;BME280;3464;42.728;23.296;2022-09-21T06:33:44;95442.02;;;21.41;42.33
6851;BME280;3464;42.728;23.296;2022-09-21T06:36:10;95438.97;;;22.61;40.70
6851;BME280;3464;42.728;23.296;2022-09-21T06:38:37;95444.00;;;22.64;40.58
6851;BME280;3464;42.728;23.296;2022-09-21T06:41:04;95447.05;;;21.86;41.51
6851;BME280;3464;42.728;23.296;2022-09-21T06:43:31;95439.29;;;22.64;41.17
6851;BME280;3464;42.728;23.296;2022-09-21T06:45:58;95448.17;;;22.67;40.93
6851;BME280;3464;42.728;23.296;2022-09-21T06:48:24;95442.89;;;21.55;42.40
6851;BME280;3464;42.728;23.296;2022-09-21T06:50:50;95444.41;;;22.26;41.43
6851;BME280;3464;42.728;23.296;2022-09-21T06:53:17;95448.19;;;22.03;41.34
6851;BME280;3464;42.728;23.296;2022-09-21T06:55:43;95462.38;;;20.88;43.69
6851;BME280;3464;42.728;23.296;2022-09-21T06:58:10;95462.28;;;20.91;44.19
6851;BME280;3464;42.728;23.296;2022-09-21T07:00:37;95457.87;;;20.66;44.93
6851;BME280;3464;42.728;23.296;2022-09-21T07:03:04;95454.91;;;21.39;44.24
6851;BME280;3464;42.728;23.296;2022-09-21T07:05:31;95454.10;;;22.43;42.64
6851;BME280;3464;42.728;23.296;2022-09-21T07:07:57;95452.20;;;22.73;41.85
6851;BME280;3464;42.728;23.296;2022-09-21T07:10:23;95458.44;;;22.41;42.65
6851;BME280;3464;42.728;23.296;2022-09-21T07:12:50;95457.84;;;22.59;42.33
6851;BME280;3464;42.728;23.296;2022-09-21T07:15:17;95458.13;;;22.74;42.10
6851;BME280;3464;42.728;23.296;2022-09-21T07:17:43;95461.44;;;22.78;42.43
6851;BME280;3464;42.728;23.296;2022-09-21T07:20:10;95456.23;;;22.56;42.62
6851;BME280;3464;42.728;23.296;2022-09-21T07:22:36;95455.50;;;22.77;42.29
6851;BME280;3464;42.728;23.296;2022-09-21T07:25:04;95448.44;;;23.06;42.49
6851;BME280;3464;42.728;23.296;2022-09-21T07:27:31;95454.42;;;22.59;43.21
6851;BME280;3464;42.728;23.296;2022-09-21T07:29:57;95453.45;;;22.50;43.26
6851;BME280;3464;42.728;23.296;2022-09-21T07:32:24;95450.27;;;22.91;42.52
6851;BME280;3464;42.728;23.296;2022-09-21T07:34:50;95461.16;;;20.70;46.10
6851;BME280;3464;42.728;23.296;2022-09-21T07:37:17;95461.64;;;21.13;45.80
6851;BME280;3464;42.728;23.296;2022-09-21T07:39:43;95458.64;;;21.28;45.99
6851;BME280;3464;42.728;23.296;2022-09-21T07:42:10;95462.47;;;22.10;44.87
6851;BME280;3464;42.728;23.296;2022-09-21T07:44:37;95458.59;;;21.99;44.03
6851;BME280;3464;42.728;23.296;2022-09-21T07:47:04;95453.27;;;21.79;44.69
6851;BME280;3464;42.728;23.296;2022-09-21T07:49:30;95454.38;;;21.69;44.36
6851;BME280;3464;42.728;23.296;2022-09-21T07:51:57;95448.72;;;22.26;43.67
6851;BME280;3464;42.728;23.296;2022-09-21T07:54:23;95454.08;;;21.80;44.48
6851;BME280;3464;42.728;23.296;2022-09-21T07:56:50;95451.53;;;22.56;43.63
6851;BME280;3464;42.728;23.296;2022-09-21T07:59:37;95450.61;;;23.17;42.87
6851;BME280;3464;42.728;23.296;2022-09-21T08:02:04;95452.03;;;22.03;43.84
6851;BME280;3464;42.728;23.296;2022-09-21T08:04:30;95446.41;;;22.43;43.71
6851;BME280;3464;42.728;23.296;2022-09-21T08:06:57;95452.35;;;22.69;43.62
6851;BME280;3464;42.728;23.296;2022-09-21T08:09:23;95442.17;;;23.13;42.69
6851;BME280;3464;42.728;23.296;2022-09-21T08:11:50;95435.03;;;23.44;41.99
6851;BME280;3464;42.728;23.296;2022-09-21T08:14:18;95440.55;;;24.50;40.65
6851;BME280;3464;42.728;23.296;2022-09-21T08:16:45;95438.23;;;23.92;40.55
6851;BME280;3464;42.728;23.296;2022-09-21T08:19:12;95430.48;;;23.72;40.82
6851;BME280;3464;42.728;23.296;2022-09-21T08:21:38;95439.59;;;24.42;39.56
6851;BME280;3464;42.728;23.296;2022-09-21T08:24:05;95440.05;;;22.78;41.14
6851;BME280;3464;42.728;23.296;2022-09-21T08:26:33;95441.77;;;22.78;41.72
6851;BME280;3464;42.728;23.296;2022-09-21T08:29:00;95432.86;;;22.26;41.79
6851;BME280;3464;42.728;23.296;2022-09-21T08:31:27;95427.53;;;23.38;40.81
6851;BME280;3464;42.728;23.296;2022-09-21T08:33:53;95425.67;;;23.20;39.93
6851;BME280;3464;42.728;23.296;2022-09-21T08:36:20;95428.33;;;22.71;40.83
6851;BME280;3464;42.728;23.296;2022-09-21T08:38:47;95428.64;;;22.98;40.38
6851;BME280;3464;42.728;23.296;2022-09-21T08:41:24;95422.25;;;23.19;40.34
6851;BME280;3464;42.728;23.296;2022-09-21T08:43:57;95422.27;;;24.36;38.66
6851;BME280;3464;42.728;23.296;2022-09-21T08:46:22;95424.87;;;23.18;38.91
6851;BME280;3464;42.728;23.296;2022-09-21T08:48:55;95426.91;;;23.20;38.20
6851;BME280;3464;42.728;23.296;2022-09-21T08:51:20;95417.50;;;23.75;38.02
6851;BME280;3464;42.728;23.296;2022-09-21T08:53:47;95419.81;;;24.24;38.12
6851;BME280;3464;42.728;23.296;2022-09-21T08:56:13;95411.34;;;24.31;37.39
6851;BME280;3464;42.728;23.296;2022-09-21T08:58:39;95414.89;;;23.76;38.02
6851;BME280;3464;42.728;23.296;2022-09-21T09:04:39;95411.57;;;22.48;39.23
6851;BME280;3464;42.728;23.296;2022-09-21T09:09:25;95403.11;;;24.03;37.45
6851;BME280;3464;42.728;23.296;2022-09-21T09:11:59;95402.15;;;24.36;37.65
6851;BME280;3464;42.728;23.296;2022-09-21T09:14:37;95402.14;;;24.46;36.97
6851;BME280;3464;42.728;23.296;2022-09-21T09:17:13;95400.08;;;23.71;37.87
6851;BME280;3464;42.728;23.296;2022-09-21T09:19:39;95397.02;;;24.35;37.77
6851;BME280;3464;42.728;23.296;2022-09-21T09:22:02;95386.35;;;23.93;37.47
6851;BME280;3464;42.728;23.296;2022-09-21T09:24:42;95392.05;;;22.80;38.70
6851;BME280;3464;42.728;23.296;2022-09-21T09:27:11;95378.58;;;22.63;39.80
6851;BME280;3464;42.728;23.296;2022-09-21T09:30:07;95383.28;;;22.51;40.14
6851;BME280;3464;42.728;23.296;2022-09-21T09:32:48;95388.46;;;22.50;39.68
6851;BME280;3464;42.728;23.296;2022-09-21T09:35:21;95379.43;;;22.63;39.24
6851;BME280;3464;42.728;23.296;2022-09-21T09:37:44;95387.43;;;22.78;39.40
6851;BME280;3464;42.728;23.296;2022-09-21T09:40:11;95377.28;;;23.64;38.07
6851;BME280;3464;42.728;23.296;2022-09-21T09:42:55;95379.23;;;22.91;38.71
6851;BME280;3464;42.728;23.296;2022-09-21T09:50:48;95365.36;;;22.73;39.50
6851;BME280;3464;42.728;23.296;2022-09-21T09:53:17;95366.84;;;23.36;37.93
6851;BME280;3464;42.728;23.296;2022-09-21T09:55:44;95369.80;;;22.58;38.38
6851;BME280;3464;42.728;23.296;2022-09-21T09:58:16;95372.17;;;22.26;37.73
6851;BME280;3464;42.728;23.296;2022-09-21T10:00:37;95357.28;;;23.06;36.71
6851;BME280;3464;42.728;23.296;2022-09-21T10:03:06;95360.84;;;23.25;37.27
6851;BME280;3464;42.728;23.296;2022-09-21T10:05:31;95350.73;;;22.52;38.32
6851;BME280;3464;42.728;23.296;2022-09-21T10:07:57;95345.30;;;22.37;39.37
6851;BME280;3464;42.728;23.296;2022-09-21T10:10:35;95350.73;;;22.52;38.34
6851;BME280;3464;42.728;23.296;2022-09-21T10:13:05;95353.95;;;22.81;37.04
6851;BME280;3464;42.728;23.296;2022-09-21T10:15:29;95343.87;;;21.92;36.89
6851;BME280;3464;42.728;23.296;2022-09-21T10:17:56;95329.59;;;21.60;37.91
6851;BME280;3464;42.728;23.296;2022-09-21T10:20:22;95335.09;;;22.47;38.25
6851;BME280;3464;42.728;23.296;2022-09-21T10:22:52;95325.08;;;22.86;37.87
6851;BME280;3464;42.728;23.296;2022-09-21T10:25:15;95323.61;;;23.35;37.58
6851;BME280;3464;42.728;23.296;2022-09-21T10:27:42;95324.33;;;24.21;36.84
6851;BME280;3464;42.728;23.296;2022-09-21T10:32:53;95326.23;;;22.56;37.59
6851;BME280;3464;42.728;23.296;2022-09-21T10:35:15;95329.80;;;22.28;38.23
6851;BME280;3464;42.728;23.296;2022-09-21T10:37:43;95325.74;;;22.34;38.50
6851;BME280;3464;42.728;23.296;2022-09-21T10:40:24;95327.36;;;21.88;39.03
6851;BME280;3464;42.728;23.296;2022-09-21T10:42:54;95325.64;;;23.16;37.65
6851;BME280;3464;42.728;23.296;2022-09-21T10:45:20;95309.23;;;22.29;37.64
6851;BME280;3464;42.728;23.296;2022-09-21T10:47:49;95318.50;;;21.59;38.15
6851;BME280;3464;42.728;23.296;2022-09-21T10:50:23;95310.63;;;21.91;37.38
6851;BME280;3464;42.728;23.296;2022-09-21T10:52:49;95304.92;;;22.77;35.80
6851;BME280;3464;42.728;23.296;2022-09-21T10:55:18;95301.66;;;22.50;37.75
6851;BME280;3464;42.728;23.296;2022-09-21T10:57:44;95298.70;;;22.93;36.89
6851;BME280;3464;42.728;23.296;2022-09-21T11:00:27;95300.30;;;23.61;35.68
6851;BME280;3464;42.728;23.296;2022-09-21T11:02:55;95303.20;;;23.52;35.11
6851;BME280;3464;42.728;23.296;2022-09-21T11:05:26;95307.48;;;22.54;35.84
6851;BME280;3464;42.728;23.296;2022-09-21T11:08:27;95303.90;;;22.81;35.37
6851;BME280;3464;42.728;23.296;2022-09-21T11:13:14;95292.23;;;23.27;34.96
6851;BME280;3464;42.728;23.296;2022-09-21T11:18:35;95295.18;;;23.60;35.49
6851;BME280;3464;42.728;23.296;2022-09-21T11:20:57;95285.70;;;23.40;35.86
6851;BME280;3464;42.728;23.296;2022-09-21T11:28:53;95289.61;;;23.50;34.92
6851;BME280;3464;42.728;23.296;2022-09-21T11:31:26;95296.94;;;23.89;34.72
6851;BME280;3464;42.728;23.296;2022-09-21T11:34:06;95295.42;;;24.24;33.71
6851;BME280;3464;42.728;23.296;2022-09-21T11:37:10;95314.72;;;24.24;33.41
6851;BME280;3464;42.728;23.296;2022-09-21T11:43:00;95323.81;;;19.80;43.88
6851;BME280;3464;42.728;23.296;2022-09-21T11:50:27;95340.78;;;19.14;45.19
6851;BME280;3464;42.728;23.296;2022-09-21T11:54:13;95333.96;;;18.36;47.47
6851;BME280;3464;42.728;23.296;2022-09-21T11:58:41;95337.36;;;18.95;46.76
6851;BME280;3464;42.728;23.296;2022-09-21T12:01:09;95328.97;;;18.72;47.48
6851;BME280;3464;42.728;23.296;2022-09-21T12:03:48;95340.84;;;18.53;47.91
6851;BME280;3464;42.728;23.296;2022-09-21T12:06:20;95332.32;;;18.32;48.76
6851;BME280;3464;42.728;23.296;2022-09-21T12:09:05;95339.86;;;18.16;48.84
6851;BME280;3464;42.728;23.296;2022-09-21T12:11:35;95344.14;;;18.15;48.81
6851;BME280;3464;42.728;23.296;2022-09-21T12:17:23;95340.80;;;18.12;49.32
6851;BME280;3464;42.728;23.296;2022-09-21T12:19:40;95351.05;;;18.09;48.27
6851;BME280;3464;42.728;23.296;2022-09-21T12:22:11;95337.79;;;18.36;47.60
6851;BME280;3464;42.728;23.296;2022-09-21T12:24:41;95332.89;;;18.86;46.91
6851;BME280;3464;42.728;23.296;2022-09-21T12:27:12;95328.48;;;19.47;45.60
6851;BME280;3464;42.728;23.296;2022-09-21T12:29:38;95333.02;;;19.36;45.70
6851;BME280;3464;42.728;23.296;2022-09-21T12:32:07;95338.30;;;19.10;45.03
6851;BME280;3464;42.728;23.296;2022-09-21T12:34:36;95327.39;;;19.22;44.79
6851;BME280;3464;42.728;23.296;2022-09-21T12:37:07;95338.08;;;19.55;44.06
6851;BME280;3464;42.728;23.296;2022-09-21T12:39:34;95332.56;;;20.19;43.13
6851;BME280;3464;42.728;23.296;2022-09-21T12:42:01;95327.97;;;20.31;42.98
6851;BME280;3464;42.728;23.296;2022-09-21T12:44:34;95330.47;;;19.86;43.50
6851;BME280;3464;42.728;23.296;2022-09-21T12:47:04;95326.57;;;20.51;42.38
6851;BME280;3464;42.728;23.296;2022-09-21T12:49:30;95324.59;;;21.42;41.49
6851;BME280;3464;42.728;23.296;2022-09-21T12:51:58;95322.07;;;21.16;40.95
6851;BME280;3464;42.728;23.296;2022-09-21T12:54:35;95322.22;;;21.37;40.42
6851;BME280;3464;42.728;23.296;2022-09-21T12:57:01;95311.36;;;21.17;40.62
6851;BME280;3464;42.728;23.296;2022-09-21T12:59:39;95313.78;;;21.21;40.61
6851;BME280;3464;42.728;23.296;2022-09-21T13:02:47;95322.22;;;21.10;41.07
6851;BME280;3464;42.728;23.296;2022-09-21T13:05:03;95323.16;;;20.36;42.07
6851;BME280;3464;42.728;23.296;2022-09-21T13:10:54;95310.62;;;21.78;38.38
6851;BME280;3464;42.728;23.296;2022-09-21T13:12:58;95307.24;;;22.37;37.15
6851;BME280;3464;42.728;23.296;2022-09-21T13:15:25;95301.89;;;23.11;36.02
6851;BME280;3464;42.728;23.296;2022-09-21T13:18:06;95295.59;;;23.08;35.55
6851;BME280;3464;42.728;23.296;2022-09-21T13:20:33;95300.14;;;22.09;36.92
6851;BME280;3464;42.728;23.296;2022-09-21T13:22:59;95294.89;;;22.70;36.29
6851;BME280;3464;42.728;23.296;2022-09-21T13:25:26;95302.06;;;21.01;37.61
6851;BME280;3464;42.728;23.296;2022-09-21T13:28:01;95290.12;;;21.27;37.60
6851;BME280;3464;42.728;23.296;2022-09-21T13:30:31;95290.20;;;21.38;37.57
6851;BME280;3464;42.728;23.296;2022-09-21T13:32:56;95290.64;;;21.63;37.83
6851;BME280;3464;42.728;23.296;2022-09-21T13:40:45;95299.88;;;20.88;37.51
6851;BME280;3464;42.728;23.296;2022-09-21T13:43:16;95294.58;;;20.93;38.16
6851;BME280;3464;42.728;23.296;2022-09-21T13:45:48;95291.55;;;21.74;36.60
6851;BME280;3464;42.728;23.296;2022-09-21T13:48:17;95299.01;;;20.74;37.27
6851;BME280;3464;42.728;23.296;2022-09-21T13:50:41;95289.66;;;20.45;37.96
6851;BME280;3464;42.728;23.296;2022-09-21T13:53:17;95294.31;;;19.84;39.56
6851;BME280;3464;42.728;23.296;2022-09-21T13:55:49;95296.56;;;20.12;39.53
6851;BME280;3464;42.728;23.296;2022-09-21T14:01:01;95297.08;;;20.53;40.41
6851;BME280;3464;42.728;23.296;2022-09-21T14:03:36;95290.33;;;20.51;40.02
6851;BME280;3464;42.728;23.296;2022-09-21T14:06:10;95281.19;;;20.72;39.71
6851;BME280;3464;42.728;23.296;2022-09-21T14:08:37;95279.48;;;21.77;38.41
6851;BME280;3464;42.728;23.296;2022-09-21T14:11:15;95268.39;;;21.89;38.20
6851;BME280;3464;42.728;23.296;2022-09-21T14:13:45;95266.54;;;22.05;37.82
6851;BME280;3464;42.728;23.296;2022-09-21T14:18:49;95264.56;;;22.01;37.22
6851;BME280;3464;42.728;23.296;2022-09-21T14:21:16;95276.98;;;21.37;36.69